Time;durP1;ratioP1;P1;durP2;ratioP2;P2;SDS_P1;SDS_P2;PMS_P1;PMS_P2;Temp;Humidity;BMP_temperature;BMP_pressure;BME280_temperature;BME280_humidity;BME280_pressure;Samples;Min_cycle;Max_cycle;Signal;HPM_P1;HPM_P2
2023/08/20 00:01:41;;;;;;;;;;;;;;;18.70;95.34;101996.03;5066755;28;1287;-83
2023/08/20 00:04:07;;;;;;;;;;;;;;;18.66;95.25;101994.63;5055913;28;1161;-82
2023/08/20 00:06:32;;;;;;;;;;;;;;;18.64;95.44;101997.44;5069260;28;906;-82
2023/08/20 00:08:57;;;;;;;;;;;;;;;18.65;95.51;101993.81;5055526;28;1143;-82
2023/08/20 00:11:23;;;;;;;;;;;;;;;18.68;95.27;101992.72;5072125;28;1064;-78
2023/08/20 00:13:48;;;;;;;;;;;;;;;18.69;95.13;101994.34;5054813;28;1106;-83
2023/08/20 00:16:13;;;;;;;;;;;;;;;18.69;95.00;101994.34;5067047;28;1894;-83
2023/08/20 00:18:39;;;;;;;;;;;;;;;18.70;94.97;101990.78;5067091;28;1581;-81
2023/08/20 00:21:04;;;;;;;;;;;;;;;18.69;94.90;101989.09;5060914;28;1329;-82
2023/08/20 00:23:30;;;;;;;;;;;;;;;18.68;94.69;101992.72;5073983;28;1103;-83
2023/08/20 00:25:55;;;;;;;;;;;;;;;18.69;94.64;101994.34;5062411;28;1203;-83
2023/08/20 00:28:20;;;;;;;;;;;;;;;18.67;94.66;102001.53;5065449;28;1302;-82
2023/08/20 00:30:46;;;;;;;;;;;;;;;18.66;94.48;101990.22;5074913;28;1344;-82
2023/08/20 00:33:11;;;;;;;;;;;;;;;18.64;94.33;102001.81;5071540;28;1050;-81
2023/08/20 00:35:36;;;;;;;;;;;;;;;18.62;94.49;102004.63;5059500;28;1894;-83
2023/08/20 00:38:02;;;;;;;;;;;;;;;18.61;94.33;102002.13;5081509;28;1030;-80
2023/08/20 00:40:27;;;;;;;;;;;;;;;18.58;94.30;102009.34;5081524;28;1154;-81
2023/08/20 00:42:53;;;;;;;;;;;;;;;18.57;94.44;102018.19;5054549;28;1306;-78
2023/08/20 00:45:18;;;;;;;;;;;;;;;18.56;94.45;102011.28;5057494;28;1281;-81
2023/08/20 00:47:44;;;;;;;;;;;;;;;18.56;94.37;102011.28;5047221;28;1265;-79
2023/08/20 00:50:09;;;;;;;;;;;;;;;18.55;94.39;102009.63;5053404;28;1228;-77
2023/08/20 00:52:35;;;;;;;;;;;;;;;18.55;94.30;102014.06;5066425;28;1113;-82
2023/08/20 00:55:03;;;;;;;;;;;;;;;18.54;94.03;102018.50;5069222;28;1903;-78
2023/08/20 00:57:28;;;;;;;;;;;;;;;18.51;94.25;102016.16;5045199;28;1663;-82
2023/08/20 00:59:54;;;;;;;;;;;;;;;18.52;94.22;102030.97;5067664;28;1242;-77
2023/08/20 01:02:19;;;;;;;;;;;;;;;18.50;94.16;102022.38;5067155;28;1014;-79
2023/08/20 01:04:46;;;;;;;;;;;;;;;18.48;94.20;102029.59;5069545;28;1102;-83
2023/08/20 01:07:18;;;;;;;;;;;;;;;18.44;94.29;102038.75;5069488;28;1172;-83
2023/08/20 01:09:55;;;;;;;;;;;;;;;18.38;94.73;102034.06;5071076;28;1173;-83
2023/08/20 01:12:22;;;;;;;;;;;;;;;18.38;94.84;102031.44;5070909;28;1332;-80
2023/08/20 01:14:47;;;;;;;;;;;;;;;18.42;94.84;102030.19;5049786;28;1955;-81
2023/08/20 01:17:12;;;;;;;;;;;;;;;18.45;94.85;102040.38;5067406;28;1133;-83
2023/08/20 01:19:38;;;;;;;;;;;;;;;18.43;94.83;102037.09;5053290;28;1194;-83
2023/08/20 01:22:06;;;;;;;;;;;;;;;18.41;95.11;102054.81;5070671;28;1141;-82
2023/08/20 01:24:31;;;;;;;;;;;;;;;18.42;95.34;102053.84;5063889;28;1026;-83
2023/08/20 01:27:10;;;;;;;;;;;;;;;18.42;95.33;102048.59;5065157;28;1209;-82
2023/08/20 01:29:36;;;;;;;;;;;;;;;18.42;95.33;102050.38;5049896;28;1534;-82
2023/08/20 01:32:02;;;;;;;;;;;;;;;18.43;95.50;102052.84;5074664;28;1087;-80
2023/08/20 01:34:27;;;;;;;;;;;;;;;18.42;95.39;102059.09;5078123;28;1976;-83
2023/08/20 01:36:52;;;;;;;;;;;;;;;18.40;95.55;102066.28;5072631;28;1158;-83
2023/08/20 01:39:18;;;;;;;;;;;;;;;18.39;95.66;102067.25;5068787;28;1143;-81
2023/08/20 01:41:44;;;;;;;;;;;;;;;18.38;95.97;102062.16;5066322;28;1279;-79
2023/08/20 01:44:09;;;;;;;;;;;;;;;18.36;96.00;102056.22;5079618;28;995;-82
2023/08/20 01:46:34;;;;;;;;;;;;;;;18.37;96.15;102056.06;5077570;28;1080;-83
2023/08/20 01:48:59;;;;;;;;;;;;;;;18.33;96.17;102052.06;5054406;28;1260;-83
2023/08/20 01:51:25;;;;;;;;;;;;;;;18.32;96.37;102055.69;5056341;28;1156;-83
2023/08/20 01:53:50;;;;;;;;;;;;;;;18.33;96.39;102062.59;5066034;28;1152;-79
2023/08/20 01:56:16;;;;;;;;;;;;;;;18.34;96.45;102077.34;5066412;28;1970;-83
2023/08/20 01:58:41;;;;;;;;;;;;;;;18.33;96.37;102077.50;5057065;28;1450;-83
2023/08/20 02:01:06;;;;;;;;;;;;;;;18.30;96.66;102074.22;5066243;28;929;-79
2023/08/20 02:03:31;;;;;;;;;;;;;;;18.31;96.54;102072.41;5075790;28;1096;-82
2023/08/20 02:05:56;;;;;;;;;;;;;;;18.32;96.66;102079.31;5057103;28;1187;-82
2023/08/20 02:08:23;;;;;;;;;;;;;;;18.33;96.70;102088.84;5066862;28;1347;-82
2023/08/20 02:10:48;;;;;;;;;;;;;;;18.30;96.64;102089.16;5069193;28;1152;-81
2023/08/20 02:13:13;;;;;;;;;;;;;;;18.28;96.79;102097.16;5055063;28;1220;-80
2023/08/20 02:15:38;;;;;;;;;;;;;;;18.28;96.72;102096.31;5075832;28;1895;-82
2023/08/20 02:18:04;;;;;;;;;;;;;;;18.26;96.68;102093.03;5067034;28;1074;-83
2023/08/20 02:20:29;;;;;;;;;;;;;;;18.18;96.81;102090.28;5070706;28;1249;-83
2023/08/20 02:22:54;;;;;;;;;;;;;;;18.12;96.86;102085.59;5070914;28;1329;-83
2023/08/20 02:25:20;;;;;;;;;;;;;;;18.04;96.87;102078.47;5058501;28;1074;-82
2023/08/20 02:27:45;;;;;;;;;;;;;;;18.00;97.00;102088.41;5069542;28;1137;-81
2023/08/20 02:30:13;;;;;;;;;;;;;;;17.96;97.24;102092.31;5065521;28;1097;-82
2023/08/20 02:32:38;;;;;;;;;;;;;;;17.93;97.41;102084.69;5050037;28;1399;-82
2023/08/20 02:35:05;;;;;;;;;;;;;;;17.93;97.37;102082.06;5062308;28;1882;-81
2023/08/20 02:37:30;;;;;;;;;;;;;;;17.94;97.53;102086.34;5058296;28;2249;-80
2023/08/20 02:39:55;;;;;;;;;;;;;;;17.95;97.44;102090.66;5051375;28;1322;-82
2023/08/20 02:42:21;;;;;;;;;;;;;;;17.98;97.83;102090.34;5050658;28;1164;-80
2023/08/20 02:44:46;;;;;;;;;;;;;;;18.00;97.71;102088.41;5066003;28;1555;-79
2023/08/20 02:47:11;;;;;;;;;;;;;;;18.02;97.54;102086.47;5076821;28;1041;-82
2023/08/20 02:49:36;;;;;;;;;;;;;;;18.03;97.47;102088.13;5065594;28;1337;-80
2023/08/20 02:52:02;;;;;;;;;;;;;;;18.04;97.42;102087.16;5081249;28;1335;-82
2023/08/20 02:54:29;;;;;;;;;;;;;;;18.03;97.52;102075.00;5079282;28;1902;-83
2023/08/20 02:56:54;;;;;;;;;;;;;;;18.05;97.30;102074.84;5077449;28;1103;-83
2023/08/20 02:59:19;;;;;;;;;;;;;;;18.03;97.19;102072.38;5072364;28;1536;-81
2023/08/20 03:01:44;;;;;;;;;;;;;;;18.04;97.07;102078.47;5069212;28;1157;-80
2023/08/20 03:04:10;;;;;;;;;;;;;;;18.01;96.85;102065.63;5073012;28;1208;-80
2023/08/20 03:06:35;;;;;;;;;;;;;;;18.01;96.73;102063.84;5071253;28;1146;-76
2023/08/20 03:09:00;;;;;;;;;;;;;;;17.99;96.87;102068.38;5074385;28;1148;-79
2023/08/20 03:11:25;;;;;;;;;;;;;;;17.98;96.70;102066.72;5078666;28;938;-79
2023/08/20 03:13:50;;;;;;;;;;;;;;;17.95;96.46;102061.78;5067256;28;1125;-80
2023/08/20 03:16:16;;;;;;;;;;;;;;;17.93;96.35;102066.31;5066028;28;1909;-79
2023/08/20 03:18:41;;;;;;;;;;;;;;;17.91;96.33;102062.22;5073018;28;1336;-76
2023/08/20 03:21:06;;;;;;;;;;;;;;;17.88;96.33;102063.31;5064496;28;929;-81
2023/08/20 03:23:31;;;;;;;;;;;;;;;17.87;96.27;102056.41;5073213;28;1102;-82
2023/08/20 03:26:00;;;;;;;;;;;;;;;17.86;96.26;102065.25;5069088;28;1004;-82
2023/08/20 03:28:25;;;;;;;;;;;;;;;17.83;96.22;102055.03;5068832;28;1288;-82
2023/08/20 03:30:50;;;;;;;;;;;;;;;17.81;96.19;102062.22;5073907;28;1074;-79
2023/08/20 03:33:16;;;;;;;;;;;;;;;17.80;96.05;102065.81;5051407;28;1438;-81
2023/08/20 03:35:42;;;;;;;;;;;;;;;17.76;96.10;102064.44;5067174;28;1977;-82
2023/08/20 03:38:07;;;;;;;;;;;;;;;17.71;96.17;102062.22;5064977;28;1099;-80
2023/08/20 03:40:32;;;;;;;;;;;;;;;17.64;96.29;102060.28;5061575;28;1169;-76
2023/08/20 03:42:57;;;;;;;;;;;;;;;17.57;96.60;102064.47;5060858;28;1164;-82
2023/08/20 03:45:23;;;;;;;;;;;;;;;17.47;96.88;102065.28;5061976;28;1143;-80
2023/08/20 03:47:48;;;;;;;;;;;;;;;17.37;96.91;102064.47;5071640;28;1253;-82
2023/08/20 03:50:13;;;;;;;;;;;;;;;17.31;96.99;102070.25;5062243;28;1525;-79
2023/08/20 03:52:39;;;;;;;;;;;;;;;17.25;97.04;102070.81;5079197;28;949;-82
2023/08/20 03:55:04;;;;;;;;;;;;;;;17.18;97.13;102074.97;5082732;28;1897;-81
2023/08/20 03:57:30;;;;;;;;;;;;;;;17.11;97.63;102076.50;5060411;28;1407;-82
2023/08/20 03:59:55;;;;;;;;;;;;;;;17.06;97.61;102081.31;5077958;28;1104;-83
2023/08/20 04:02:20;;;;;;;;;;;;;;;17.02;97.91;102085.16;5058376;28;1420;-82
2023/08/20 04:04:45;;;;;;;;;;;;;;;16.98;98.08;102088.06;5076573;28;972;-76
2023/08/20 04:07:10;;;;;;;;;;;;;;;16.98;98.11;102085.44;5077172;28;956;-82
2023/08/20 04:09:36;;;;;;;;;;;;;;;17.02;98.09;102079.91;5069179;28;1203;-79
2023/08/20 04:12:02;;;;;;;;;;;;;;;17.04;98.11;102093.75;5077269;28;1031;-81
2023/08/20 04:14:27;;;;;;;;;;;;;;;17.06;98.22;102086.56;5078734;28;1897;-82
2023/08/20 04:16:52;;;;;;;;;;;;;;;17.09;98.04;102091.50;5073889;28;1232;-79
2023/08/20 04:19:17;;;;;;;;;;;;;;;17.09;97.79;102091.50;5058648;28;1251;-82
2023/08/20 04:21:42;;;;;;;;;;;;;;;17.11;97.89;102089.59;5073520;28;1006;-81
2023/08/20 04:24:08;;;;;;;;;;;;;;;17.10;97.86;102087.94;5073693;28;1004;-80
2023/08/20 04:26:33;;;;;;;;;;;;;;;17.10;97.65;102085.31;5073585;28;1098;-78
2023/08/20 04:28:58;;;;;;;;;;;;;;;17.10;97.63;102088.78;5073266;28;1036;-80
2023/08/20 04:31:23;;;;;;;;;;;;;;;17.10;97.33;102087.94;5053638;28;1263;-79
2023/08/20 04:33:48;;;;;;;;;;;;;;;17.11;97.46;102085.19;5067519;28;1090;-79
2023/08/20 04:36:14;;;;;;;;;;;;;;;17.11;97.72;102084.34;5045956;28;1890;-82
2023/08/20 04:38:39;;;;;;;;;;;;;;;17.05;97.33;102095.38;5051016;28;1060;-77
2023/08/20 04:41:04;;;;;;;;;;;;;;;16.99;97.62;102096.75;5067560;28;1182;-81
2023/08/20 04:43:29;;;;;;;;;;;;;;;16.93;97.51;102102.53;5063706;28;984;-80
2023/08/20 04:45:54;;;;;;;;;;;;;;;16.86;97.47;102104.88;5067211;28;1232;-83
2023/08/20 04:48:20;;;;;;;;;;;;;;;16.78;97.45;102099.47;5066444;28;986;-81
2023/08/20 04:50:45;;;;;;;;;;;;;;;16.71;97.86;102106.22;5065638;28;1240;-81
2023/08/20 04:53:11;;;;;;;;;;;;;;;16.68;98.02;102103.81;5048377;28;1257;-81
2023/08/20 04:55:36;;;;;;;;;;;;;;;16.68;98.20;102109.06;5076439;28;1933;-81
2023/08/20 04:58:01;;;;;;;;;;;;;;;16.65;98.25;102111.97;5079293;28;1083;-81
2023/08/20 05:00:26;;;;;;;;;;;;;;;16.57;98.29;102106.53;5070214;28;1284;-81
2023/08/20 05:02:52;;;;;;;;;;;;;;;16.51;98.33;102113.13;5076095;28;1655;-79
2023/08/20 05:05:17;;;;;;;;;;;;;;;16.52;98.55;102119.22;5069789;28;1012;-79
2023/08/20 05:07:44;;;;;;;;;;;;;;;16.49;98.80;102119.47;5052825;28;1266;-81
2023/08/20 05:10:09;;;;;;;;;;;;;;;16.52;99.10;102120.06;5061443;28;1124;-81
2023/08/20 05:12:34;;;;;;;;;;;;;;;16.53;99.21;102120.88;5075319;28;1236;-82
2023/08/20 05:14:59;;;;;;;;;;;;;;;16.56;99.28;102117.97;5071022;28;1957;-77
2023/08/20 05:17:25;;;;;;;;;;;;;;;16.55;99.25;102121.56;5068683;28;1220;-82
2023/08/20 05:19:50;;;;;;;;;;;;;;;16.55;99.36;102124.19;5079896;28;1241;-82
2023/08/20 05:22:15;;;;;;;;;;;;;;;16.56;99.78;102125.84;5067361;28;1119;-80
2023/08/20 05:24:40;;;;;;;;;;;;;;;16.58;99.89;102123.94;5075163;28;1223;-80
2023/08/20 05:27:06;;;;;;;;;;;;;;;16.60;99.80;102142.97;5071383;28;1510;-82
2023/08/20 05:29:31;;;;;;;;;;;;;;;16.63;99.78;102137.44;5048957;28;1164;-80
2023/08/20 05:31:56;;;;;;;;;;;;;;;16.67;100.00;102144.91;5069553;28;1380;-82
2023/08/20 05:34:21;;;;;;;;;;;;;;;16.70;100.00;102141.22;5073577;28;1945;-80
2023/08/20 05:36:46;;;;;;;;;;;;;;;16.74;100.00;102140.00;5067088;28;1111;-80
2023/08/20 05:39:12;;;;;;;;;;;;;;;16.75;100.00;102136.44;5045607;28;1198;-74
2023/08/20 05:41:37;;;;;;;;;;;;;;;16.80;100.00;102139.47;5071069;28;1014;-81
2023/08/20 05:44:02;;;;;;;;;;;;;;;16.86;100.00;102144.19;5073467;28;1094;-78
2023/08/20 05:46:27;;;;;;;;;;;;;;;16.90;100.00;102145.56;5045543;28;1218;-81
2023/08/20 05:48:53;;;;;;;;;;;;;;;16.94;100.00;102146.97;5073370;28;1105;-80
2023/08/20 05:51:18;;;;;;;;;;;;;;;16.96;100.00;102150.25;5072612;28;1074;-80
2023/08/20 05:53:43;;;;;;;;;;;;;;;17.01;100.00;102147.25;5050611;28;1396;-81
2023/08/20 05:56:09;;;;;;;;;;;;;;;17.04;100.00;102141.75;5068285;28;2002;-82
2023/08/20 05:58:37;;;;;;;;;;;;;;;17.07;100.00;102151.13;5062377;28;995;-79
2023/08/20 06:01:02;;;;;;;;;;;;;;;17.11;99.82;102152.50;5066191;28;1535;-81
2023/08/20 06:03:27;;;;;;;;;;;;;;;17.15;99.85;102148.66;5077489;28;976;-81
2023/08/20 06:05:52;;;;;;;;;;;;;;;17.17;99.77;102151.97;5074590;28;1118;-79
2023/08/20 06:08:17;;;;;;;;;;;;;;;17.20;99.61;102147.28;5072820;28;1266;-79
2023/08/20 06:10:43;;;;;;;;;;;;;;;17.24;99.53;102155.69;5076360;28;1074;-80
2023/08/20 06:13:09;;;;;;;;;;;;;;;17.27;99.36;102158.06;5079676;28;1149;-81
2023/08/20 06:15:34;;;;;;;;;;;;;;;17.32;99.17;102150.63;5071879;28;1976;-81
2023/08/20 06:17:59;;;;;;;;;;;;;;;17.34;98.97;102153.91;5070600;28;1486;-80
2023/08/20 06:20:24;;;;;;;;;;;;;;;17.39;98.86;102151.72;5070373;28;1344;-82
2023/08/20 06:22:49;;;;;;;;;;;;;;;17.42;98.95;102155.84;5073835;28;1089;-81
2023/08/20 06:25:15;;;;;;;;;;;;;;;17.47;98.99;102146.59;5053395;28;1272;-80
2023/08/20 06:27:41;;;;;;;;;;;;;;;17.52;98.64;102149.66;5075641;28;1213;-81
2023/08/20 06:30:06;;;;;;;;;;;;;;;17.59;98.78;102149.09;5052999;28;1467;-81
2023/08/20 06:32:31;;;;;;;;;;;;;;;17.60;98.42;102142.88;5069467;28;1225;-79
2023/08/20 06:34:57;;;;;;;;;;;;;;;17.72;98.39;102152.28;5070564;28;1890;-76
2023/08/20 06:37:22;;;;;;;;;;;;;;;17.75;98.46;102162.50;5077930;28;1290;-75
2023/08/20 06:39:50;;;;;;;;;;;;;;;17.81;98.20;102156.69;5070372;28;1524;-75
2023/08/20 06:42:15;;;;;;;;;;;;;;;17.84;98.17;102155.63;5072935;28;1103;-75
2023/08/20 06:44:40;;;;;;;;;;;;;;;17.90;98.14;102155.88;5073734;28;1055;-76
2023/08/20 06:47:06;;;;;;;;;;;;;;;17.97;98.11;102150.88;5077055;28;1192;-75
2023/08/20 06:49:31;;;;;;;;;;;;;;;18.06;98.08;102155.28;5066913;28;1000;-75
2023/08/20 06:51:56;;;;;;;;;;;;;;;18.12;97.88;102153.88;5069095;28;1161;-76
2023/08/20 06:54:21;;;;;;;;;;;;;;;18.18;98.02;102148.06;5066449;28;1910;-75
2023/08/20 06:56:46;;;;;;;;;;;;;;;18.26;97.78;102151.63;5065471;28;1394;-75
2023/08/20 06:59:12;;;;;;;;;;;;;;;18.37;97.48;102148.00;5068910;28;1153;-75
2023/08/20 07:01:37;;;;;;;;;;;;;;;18.42;96.77;102151.03;5068090;28;1169;-75
2023/08/20 07:04:02;;;;;;;;;;;;;;;18.47;96.51;102148.81;5067511;28;1153;-75
2023/08/20 07:06:27;;;;;;;;;;;;;;;18.51;96.39;102149.31;5063885;28;967;-75
2023/08/20 07:08:53;;;;;;;;;;;;;;;18.58;96.21;102146.00;5081156;28;996;-76
2023/08/20 07:11:18;;;;;;;;;;;;;;;18.68;95.96;102155.66;5072277;28;1262;-75
2023/08/20 07:13:43;;;;;;;;;;;;;;;18.74;95.98;102155.06;5074769;28;1108;-75
2023/08/20 07:16:08;;;;;;;;;;;;;;;18.82;95.80;102160.44;5063951;28;1894;-75
2023/08/20 07:18:34;;;;;;;;;;;;;;;18.85;95.36;102157.50;5062046;28;1356;-74
2023/08/20 07:20:59;;;;;;;;;;;;;;;18.91;95.36;102156.91;5070205;28;1028;-75
2023/08/20 07:23:24;;;;;;;;;;;;;;;18.95;95.14;102154.81;5072539;28;1195;-76
2023/08/20 07:25:52;;;;;;;;;;;;;;;19.02;94.94;102148.81;5071402;28;1019;-75
2023/08/20 07:28:26;;;;;;;;;;;;;;;19.09;94.72;102155.13;5071525;28;1193;-76
2023/08/20 07:30:51;;;;;;;;;;;;;;;19.26;93.40;102157.94;5071421;28;1220;-76
2023/08/20 07:33:16;;;;;;;;;;;;;;;19.22;93.75;102164.47;5069148;28;1221;-76
2023/08/20 07:35:41;;;;;;;;;;;;;;;19.30;94.14;102161.91;5076734;28;1945;-75
2023/08/20 07:38:07;;;;;;;;;;;;;;;19.37;93.69;102163.78;5071823;28;1047;-77
2023/08/20 07:40:32;;;;;;;;;;;;;;;19.44;93.10;102169.31;5072580;28;1016;-76
2023/08/20 07:42:57;;;;;;;;;;;;;;;19.53;93.18;102175.47;5072554;28;1106;-75
2023/08/20 07:45:22;;;;;;;;;;;;;;;19.62;92.18;102167.53;5074116;28;1343;-75
2023/08/20 07:47:47;;;;;;;;;;;;;;;19.61;92.19;102176.41;5066146;28;1066;-75
2023/08/20 07:50:13;;;;;;;;;;;;;;;19.69;92.22;102174.81;5074601;28;1329;-75
2023/08/20 07:52:38;;;;;;;;;;;;;;;19.78;91.42;102176.50;5064468;28;1106;-75
2023/08/20 07:55:03;;;;;;;;;;;;;;;19.84;91.92;102181.16;5055417;28;1981;-75
2023/08/20 07:57:28;;;;;;;;;;;;;;;19.94;91.61;102181.91;5065810;28;1298;-75
2023/08/20 07:59:53;;;;;;;;;;;;;;;20.07;91.42;102182.34;5070920;28;1381;-75
2023/08/20 08:02:19;;;;;;;;;;;;;;;20.19;91.48;102184.72;5070985;28;1269;-75
2023/08/20 08:04:44;;;;;;;;;;;;;;;20.35;91.04;102187.44;5071454;28;1044;-75
2023/08/20 08:07:10;;;;;;;;;;;;;;;20.47;90.35;102188.03;5063292;28;1222;-76
2023/08/20 08:09:35;;;;;;;;;;;;;;;20.50;90.06;102183.28;5049984;28;1046;-75
2023/08/20 08:12:00;;;;;;;;;;;;;;;20.55;89.49;102185.44;5063999;28;1192;-75
2023/08/20 08:14:26;;;;;;;;;;;;;;;20.57;89.55;102194.84;5067367;28;1889;-75
2023/08/20 08:16:51;;;;;;;;;;;;;;;20.64;88.39;102190.59;5072403;28;1175;-75
2023/08/20 08:19:17;;;;;;;;;;;;;;;20.68;88.51;102186.66;5075832;28;1090;-75
2023/08/20 08:21:43;;;;;;;;;;;;;;;20.74;87.73;102194.91;5058260;28;1316;-74
2023/08/20 08:24:08;;;;;;;;;;;;;;;20.78;87.22;102190.97;5068635;28;1285;-75
2023/08/20 08:26:34;;;;;;;;;;;;;;;20.85;85.57;102192.81;5067069;28;1137;-75
2023/08/20 08:28:59;;;;;;;;;;;;;;;20.85;86.44;102198.09;5059074;28;1312;-75
2023/08/20 08:31:24;;;;;;;;;;;;;;;20.94;85.46;102206.88;5078176;28;1188;-75
2023/08/20 08:33:49;;;;;;;;;;;;;;;20.96;85.76;102204.88;5068984;28;1156;-75
2023/08/20 08:36:16;;;;;;;;;;;;;;;21.05;85.71;102206.59;5074031;28;1898;-75
2023/08/20 08:38:42;;;;;;;;;;;;;;;21.18;84.81;102196.38;5059970;28;1656;-74
2023/08/20 08:41:10;;;;;;;;;;;;;;;21.27;82.46;102191.09;5071629;28;1031;-75
2023/08/20 08:43:35;;;;;;;;;;;;;;;21.25;83.68;102193.09;5064318;28;1269;-75
2023/08/20 08:46:01;;;;;;;;;;;;;;;21.33;83.49;102201.03;5073042;28;1097;-75
2023/08/20 08:48:27;;;;;;;;;;;;;;;21.44;83.59;102203.38;5061293;28;1050;-75
2023/08/20 08:50:52;;;;;;;;;;;;;;;21.61;81.42;102199.75;5075926;28;1142;-75
2023/08/20 08:53:17;;;;;;;;;;;;;;;21.61;81.66;102205.03;5073132;28;1004;-75
2023/08/20 08:55:42;;;;;;;;;;;;;;;21.69;80.32;102212.16;5065036;28;1949;-76
2023/08/20 08:58:08;;;;;;;;;;;;;;;21.74;79.97;102209.84;5068864;28;1130;-75
2023/08/20 09:00:33;;;;;;;;;;;;;;;21.79;79.85;102206.69;5072009;28;1083;-75
2023/08/20 09:02:59;;;;;;;;;;;;;;;21.96;78.97;102205.69;5067098;28;1020;-75
2023/08/20 09:05:24;;;;;;;;;;;;;;;21.99;78.96;102203.56;5048841;28;1078;-75
2023/08/20 09:07:55;;;;;;;;;;;;;;;22.06;78.11;102201.06;5066879;28;1257;-75
2023/08/20 09:10:20;;;;;;;;;;;;;;;22.18;79.01;102201.56;5069315;28;1086;-75
2023/08/20 09:12:47;;;;;;;;;;;;;;;22.36;77.87;102209.31;5068312;28;1001;-75
2023/08/20 09:15:12;;;;;;;;;;;;;;;22.45;76.62;102213.59;5066517;28;1905;-75
2023/08/20 09:17:38;;;;;;;;;;;;;;;22.42;76.57;102216.56;5065561;28;1616;-75
2023/08/20 09:20:03;;;;;;;;;;;;;;;22.48;75.92;102207.94;5071020;28;1295;-76
2023/08/20 09:22:28;;;;;;;;;;;;;;;22.63;75.35;102200.97;5069319;28;1204;-74
2023/08/20 09:24:55;;;;;;;;;;;;;;;22.79;74.51;102210.66;5079064;28;1131;-75
2023/08/20 09:27:20;;;;;;;;;;;;;;;22.88;75.11;102203.53;5074466;28;1088;-75
2023/08/20 09:29:45;;;;;;;;;;;;;;;22.96;74.40;102206.16;5078564;28;1090;-75
2023/08/20 09:32:15;;;;;;;;;;;;;;;23.01;73.48;102214.41;5074379;28;1102;-74
2023/08/20 09:34:40;;;;;;;;;;;;;;;23.02;71.33;102216.03;5075147;28;1966;-75
2023/08/20 09:37:15;;;;;;;;;;;;;;;22.96;71.05;102216.72;5070892;28;1296;-74
2023/08/20 09:39:41;;;;;;;;;;;;;;;23.00;70.45;102213.56;5070574;28;1056;-76
2023/08/20 09:42:06;;;;;;;;;;;;;;;23.07;71.32;102213.69;5053255;28;1633;-76
2023/08/20 09:44:36;;;;;;;;;;;;;;;23.16;69.85;102217.94;5071220;28;1112;-76
2023/08/20 09:47:21;;;;;;;;;;;;;;;23.27;69.63;102214.88;5070910;28;1142;-75
2023/08/20 09:49:48;;;;;;;;;;;;;;;23.28;69.86;102221.84;5069606;28;1397;-76
2023/08/20 09:52:31;;;;;;;;;;;;;;;23.39;68.60;102217.13;5068146;28;1244;-75
2023/08/20 09:54:59;;;;;;;;;;;;;;;23.40;67.97;102226.72;5066846;28;1914;-75
2023/08/20 09:57:35;;;;;;;;;;;;;;;23.49;68.13;102218.56;5067610;28;1436;-76
2023/08/20 10:00:00;;;;;;;;;;;;;;;23.60;67.17;102219.97;5059188;28;1434;-75
2023/08/20 10:02:26;;;;;;;;;;;;;;;23.74;67.18;102226.34;5071096;28;1004;-75
2023/08/20 10:04:52;;;;;;;;;;;;;;;23.87;66.51;102225.75;5065751;28;1043;-75
2023/08/20 10:07:18;;;;;;;;;;;;;;;23.82;65.32;102227.09;5046298;28;1419;-76
2023/08/20 10:09:45;;;;;;;;;;;;;;;23.93;66.72;102235.63;5064573;28;1307;-76
2023/08/20 10:12:11;;;;;;;;;;;;;;;24.08;64.12;102233.81;5070122;28;1056;-76
2023/08/20 10:14:36;;;;;;;;;;;;;;;24.11;64.36;102233.47;5069850;28;1951;-76
2023/08/20 10:17:06;;;;;;;;;;;;;;;24.14;63.67;102222.50;5064230;28;964;-75
2023/08/20 10:19:32;;;;;;;;;;;;;;;24.16;63.98;102220.50;5068292;28;1058;-76
2023/08/20 10:21:57;;;;;;;;;;;;;;;24.26;64.04;102226.38;5067503;28;1053;-76
2023/08/20 10:24:23;;;;;;;;;;;;;;;24.36;63.74;102237.56;5068773;28;1236;-76
2023/08/20 10:27:06;;;;;;;;;;;;;;;24.48;61.94;102234.44;5059055;28;1055;-76
2023/08/20 10:29:36;;;;;;;;;;;;;;;24.50;62.27;102233.28;5074825;28;1053;-76
2023/08/20 10:32:03;;;;;;;;;;;;;;;24.50;61.75;102229.81;5060333;28;1242;-75
2023/08/20 10:34:39;;;;;;;;;;;;;;;24.59;59.45;102236.66;5079992;28;1885;-75
2023/08/20 10:37:13;;;;;;;;;;;;;;;24.42;54.46;102229.88;5071755;28;1275;-75
2023/08/20 10:39:44;;;;;;;;;;;;;;;24.37;59.44;102227.78;5057601;28;1250;-75
2023/08/20 10:42:15;;;;;;;;;;;;;;;24.47;59.92;102227.50;5076891;28;1009;-76
2023/08/20 10:44:56;;;;;;;;;;;;;;;24.56;59.74;102221.13;5068122;28;1111;-75
2023/08/20 10:47:22;;;;;;;;;;;;;;;24.66;59.52;102226.97;5058063;28;1425;-75
2023/08/20 10:49:51;;;;;;;;;;;;;;;24.79;58.43;102232.44;5057056;28;1122;-75
2023/08/20 10:52:18;;;;;;;;;;;;;;;24.88;59.20;102228.66;5070192;28;1324;-75
2023/08/20 10:54:43;;;;;;;;;;;;;;;25.13;56.30;102228.38;5069092;28;1975;-75
2023/08/20 10:57:08;;;;;;;;;;;;;;;24.97;57.30;102229.38;5068280;28;1221;-76
2023/08/20 10:59:38;;;;;;;;;;;;;;;24.96;57.58;102232.22;5068772;28;935;-76
2023/08/20 11:02:07;;;;;;;;;;;;;;;25.01;57.66;102232.50;5070460;28;1117;-75
2023/08/20 11:04:33;;;;;;;;;;;;;;;25.09;57.18;102237.72;5068256;28;1064;-75
2023/08/20 11:06:58;;;;;;;;;;;;;;;25.16;57.36;102238.63;5074601;28;1148;-76
2023/08/20 11:09:25;;;;;;;;;;;;;;;25.19;57.19;102238.25;5074961;28;1106;-76
2023/08/20 11:11:51;;;;;;;;;;;;;;;25.28;57.27;102231.78;5069479;28;1188;-76
2023/08/20 11:14:18;;;;;;;;;;;;;;;25.35;55.92;102237.19;5066292;28;1430;-76
2023/08/20 11:16:46;;;;;;;;;;;;;;;25.39;56.06;102246.41;5061313;28;1886;-76
2023/08/20 11:19:11;;;;;;;;;;;;;;;25.46;55.52;102235.84;5067967;28;1508;-76
2023/08/20 11:21:40;;;;;;;;;;;;;;;25.50;56.03;102240.59;5064621;28;1229;-76
2023/08/20 11:24:06;;;;;;;;;;;;;;;25.58;54.33;102237.03;5051925;28;1041;-76
2023/08/20 11:26:32;;;;;;;;;;;;;;;25.45;50.63;102237.69;5061575;28;1339;-75
2023/08/20 11:28:57;;;;;;;;;;;;;;;25.38;52.18;102234.97;5063932;28;1196;-76
2023/08/20 11:31:22;;;;;;;;;;;;;;;25.41;53.28;102237.25;5052803;28;1160;-75
2023/08/20 11:33:49;;;;;;;;;;;;;;;25.54;53.41;102227.78;5050831;28;1362;-76
2023/08/20 11:36:15;;;;;;;;;;;;;;;25.65;53.16;102232.59;5074572;28;1906;-76
2023/08/20 11:38:40;;;;;;;;;;;;;;;25.63;51.71;102229.28;5053604;28;1512;-76
2023/08/20 11:41:05;;;;;;;;;;;;;;;25.67;53.31;102227.88;5083616;28;1119;-76
2023/08/20 11:43:30;;;;;;;;;;;;;;;25.74;51.87;102226.13;5058862;28;1300;-76
2023/08/20 11:45:55;;;;;;;;;;;;;;;25.75;49.32;102227.81;5077731;28;1050;-75
2023/08/20 11:48:21;;;;;;;;;;;;;;;25.66;51.90;102219.09;5074592;28;1027;-76
2023/08/20 11:50:46;;;;;;;;;;;;;;;25.62;52.22;102223.13;5074125;28;1010;-76
2023/08/20 11:53:12;;;;;;;;;;;;;;;25.71;52.19;102215.88;5070134;28;1138;-76
2023/08/20 11:55:38;;;;;;;;;;;;;;;25.73;50.06;102219.16;5056642;28;1898;-76
2023/08/20 11:58:03;;;;;;;;;;;;;;;25.63;50.04;102214.19;5071638;28;1295;-76
2023/08/20 12:00:30;;;;;;;;;;;;;;;25.59;48.99;102201.47;5067706;28;1004;-76
2023/08/20 12:02:55;;;;;;;;;;;;;;;25.48;47.95;102204.63;5069803;28;1276;-75
2023/08/20 12:05:28;;;;;;;;;;;;;;;25.38;50.12;102204.94;5069923;28;1176;-76
2023/08/20 12:08:00;;;;;;;;;;;;;;;25.51;50.79;102193.59;5068589;28;1242;-76
2023/08/20 12:10:29;;;;;;;;;;;;;;;25.60;49.89;102192.47;5072697;28;1076;-75
2023/08/20 12:12:54;;;;;;;;;;;;;;;25.65;49.03;102192.72;5072244;28;965;-76
2023/08/20 12:15:20;;;;;;;;;;;;;;;25.62;49.81;102185.94;5065936;28;1968;-76
2023/08/20 12:18:15;;;;;;;;;;;;;;;25.77;49.58;102188.56;5056335;28;2506;-76
2023/08/20 12:20:41;;;;;;;;;;;;;;;25.88;49.70;102189.88;5048558;28;1318;-76
2023/08/20 12:23:06;;;;;;;;;;;;;;;25.95;49.85;102196.03;5074821;28;1175;-75
2023/08/20 12:25:33;;;;;;;;;;;;;;;25.99;48.67;102192.00;5062595;28;1368;-75
2023/08/20 12:27:58;;;;;;;;;;;;;;;26.07;50.59;102193.66;5070730;28;1312;-76
2023/08/20 12:30:24;;;;;;;;;;;;;;;26.17;50.26;102188.84;5068306;28;1055;-76
2023/08/20 12:32:49;;;;;;;;;;;;;;;26.30;50.25;102188.91;5052651;28;1364;-73
2023/08/20 12:35:14;;;;;;;;;;;;;;;26.33;49.54;102188.53;5065010;28;1957;-74
2023/08/20 12:37:40;;;;;;;;;;;;;;;26.30;50.04;102188.91;5065115;28;1578;-75
2023/08/20 12:40:10;;;;;;;;;;;;;;;26.37;49.74;102195.06;5068430;28;1255;-75
2023/08/20 12:42:35;;;;;;;;;;;;;;;26.29;49.31;102192.59;5072918;28;1264;-76